createdAt,value
2019-04-26T00:00:44.973Z,15.40
2019-04-26T00:03:16.665Z,17.37
2019-04-26T00:05:45.683Z,15.40
2019-04-26T00:08:14.374Z,16.37
2019-04-26T00:11:02.823Z,16.30
2019-04-26T00:13:49.748Z,16.57
2019-04-26T00:16:40.017Z,16.70
2019-04-26T00:19:11.165Z,16.82
2019-04-26T00:21:41.223Z,17.17
2019-04-26T00:24:11.638Z,16.55
2019-04-26T00:26:40.408Z,16.65
2019-04-26T00:29:09.077Z,15.95
2019-04-26T00:31:38.033Z,16.50
2019-04-26T00:34:06.967Z,15.58
2019-04-26T00:36:35.964Z,15.75
2019-04-26T00:39:06.081Z,15.15
2019-04-26T00:41:35.924Z,17.15
2019-04-26T00:44:05.406Z,17.73
2019-04-26T00:46:37.334Z,15.90
2019-04-26T00:49:09.471Z,17.73
2019-04-26T00:51:38.900Z,17.30
2019-04-26T00:54:08.492Z,17.00
2019-04-26T00:56:38.344Z,16.40
2019-04-26T00:59:09.102Z,17.33
2019-04-26T01:01:41.126Z,17.07
2019-04-26T01:04:10.676Z,18.37
2019-04-26T01:06:42.176Z,16.25
2019-04-26T01:09:11.875Z,15.48
2019-04-26T01:11:41.242Z,16.93
2019-04-26T01:14:11.296Z,17.12
2019-04-26T01:16:42.448Z,16.32
2019-04-26T01:19:18.563Z,17.00
2019-04-26T01:21:55.667Z,18.45
2019-04-26T01:24:27.652Z,17.20
2019-04-26T01:27:02.541Z,16.42
2019-04-26T01:29:35.585Z,17.87
2019-04-26T01:32:11.646Z,16.02
2019-04-26T01:34:44.975Z,19.85
2019-04-26T01:37:15.604Z,17.70
2019-04-26T01:39:52.382Z,16.70
2019-04-26T01:42:41.187Z,17.20
2019-04-26T01:45:17.691Z,17.15
2019-04-26T01:47:51.308Z,17.82
2019-04-26T01:50:25.509Z,17.50
2019-04-26T01:52:57.851Z,17.85
2019-04-26T01:55:32.034Z,17.65
2019-04-26T01:58:05.144Z,18.67
2019-04-26T02:00:52.491Z,19.57
2019-04-26T02:03:25.593Z,17.80
2019-04-26T02:05:55.753Z,18.40
2019-04-26T02:08:26.287Z,19.55
2019-04-26T02:10:57.595Z,18.20
2019-04-26T02:13:27.551Z,19.07
2019-04-26T02:15:57.289Z,19.92
2019-04-26T02:18:27.328Z,18.20
2019-04-26T02:21:26.362Z,19.15
2019-04-26T02:24:26.353Z,18.20
2019-04-26T02:26:56.785Z,17.27
2019-04-26T02:29:28.586Z,18.15
2019-04-26T02:32:05.968Z,19.02
2019-04-26T02:34:37.962Z,21.25
2019-04-26T02:37:12.083Z,19.67
2019-04-26T02:39:42.599Z,17.98
2019-04-26T02:42:40.587Z,17.73
2019-04-26T02:46:07.963Z,19.48
2019-04-26T02:49:06.711Z,19.40
2019-04-26T02:51:42.297Z,19.95
2019-04-26T02:54:47.220Z,20.02
2019-04-26T02:57:44.731Z,19.65
2019-04-26T03:00:18.096Z,18.98
2019-04-26T03:02:56.685Z,19.70
2019-04-26T03:05:31.719Z,21.15
2019-04-26T03:08:14.702Z,20.20
2019-04-26T03:11:08.867Z,19.55
2019-04-26T03:14:04.629Z,20.92
2019-04-26T03:16:51.100Z,19.07
2019-04-26T03:19:46.824Z,21.23
2019-04-26T03:23:03.508Z,22.02
2019-04-26T03:25:53.620Z,21.35
2019-04-26T03:29:25.858Z,19.23
2019-04-26T03:32:16.568Z,21.68
2019-04-26T03:35:21.977Z,20.65
2019-04-26T03:38:10.151Z,20.65
2019-04-26T03:41:21.180Z,20.60
2019-04-26T03:47:02.291Z,22.58
2019-04-26T03:50:18.350Z,20.55
2019-04-26T03:53:40.471Z,21.15
2019-04-26T03:56:55.362Z,22.00
2019-04-26T04:00:23.865Z,20.75
2019-04-26T04:03:56.704Z,20.85
2019-04-26T04:06:31.558Z,20.25
2019-04-26T04:09:09.347Z,22.58
2019-04-26T04:12:09.529Z,19.27
2019-04-26T04:15:00.205Z,20.35
2019-04-26T04:17:53.103Z,20.92
2019-04-26T04:21:11.632Z,22.13
2019-04-26T04:24:04.689Z,22.45
2019-04-26T04:27:30.235Z,19.37
2019-04-26T04:30:30.357Z,21.55
2019-04-26T04:33:54.025Z,22.33
2019-04-26T04:36:53.496Z,19.65
2019-04-26T04:39:50.385Z,22.67
2019-04-26T04:43:29.602Z,19.05
2019-04-26T04:47:24.520Z,20.00
2019-04-26T04:50:20.407Z,20.40
2019-04-26T04:53:38.953Z,22.10
2019-04-26T04:56:59.631Z,22.00
2019-04-26T05:00:02.239Z,22.35
2019-04-26T05:03:04.582Z,18.95
2019-04-26T05:06:16.142Z,20.70
2019-04-26T05:09:10.019Z,19.48
2019-04-26T05:12:16.047Z,20.70
2019-04-26T05:15:46.831Z,20.52
2019-04-26T05:19:29.403Z,18.98
2019-04-26T05:23:04.043Z,20.15
2019-04-26T05:26:49.506Z,23.22
2019-04-26T05:30:29.431Z,20.77
2019-04-26T05:34:04.439Z,20.75
2019-04-26T05:37:07.835Z,20.17
2019-04-26T05:40:07.674Z,18.92
2019-04-26T05:43:47.435Z,19.32
2019-04-26T05:47:43.762Z,19.42
2019-04-26T05:51:40.101Z,20.95
2019-04-26T05:54:58.441Z,19.67
2019-04-26T05:58:37.039Z,19.27
2019-04-26T06:01:56.931Z,18.10
2019-04-26T06:05:11.480Z,17.43
2019-04-26T06:08:38.892Z,18.30
2019-04-26T06:11:21.116Z,19.70
2019-04-26T06:14:48.078Z,17.12
2019-04-26T06:17:55.745Z,17.30
2019-04-26T06:20:52.591Z,16.48
2019-04-26T06:24:08.040Z,18.02
2019-04-26T06:27:23.736Z,16.93
2019-04-26T06:30:27.714Z,17.20
2019-04-26T06:33:41.401Z,18.10
2019-04-26T06:36:18.348Z,15.28
2019-04-26T06:39:13.940Z,16.45
2019-04-26T06:43:00.561Z,17.15
2019-04-26T06:46:11.440Z,15.83
2019-04-26T06:49:43.373Z,16.02
2019-04-26T06:52:17.999Z,14.68
2019-04-26T06:55:35.009Z,17.12
2019-04-26T06:59:35.561Z,15.00
2019-04-26T07:02:19.637Z,16.27
2019-04-26T07:05:27.091Z,14.87
2019-04-26T07:09:00.566Z,17.57
2019-04-26T07:12:32.666Z,15.10
2019-04-26T07:16:19.734Z,14.93
2019-04-26T07:19:19.608Z,14.28
2019-04-26T07:22:38.038Z,13.88
2019-04-26T07:26:35.248Z,13.40
2019-04-26T07:30:02.333Z,12.35
2019-04-26T07:33:58.107Z,12.05
2019-04-26T07:37:18.098Z,13.72
2019-04-26T07:41:07.230Z,13.00
2019-04-26T07:44:31.220Z,13.30
2019-04-26T07:47:46.476Z,12.43
2019-04-26T07:51:29.273Z,10.72
2019-04-26T07:55:03.283Z,11.30
2019-04-26T07:58:26.930Z,12.50
2019-04-26T08:01:49.383Z,12.33
2019-04-26T08:04:29.490Z,11.43
2019-04-26T08:07:19.381Z,12.37
2019-04-26T08:10:12.328Z,13.15
2019-04-26T08:12:49.146Z,13.30
2019-04-26T08:15:37.480Z,11.20
2019-04-26T08:18:20.686Z,11.70
2019-04-26T08:21:16.533Z,12.13
2019-04-26T08:24:03.420Z,10.48
2019-04-26T08:26:38.680Z,10.98
2019-04-26T08:29:14.716Z,10.35
2019-04-26T08:31:48.266Z,10.45
2019-04-26T08:34:28.936Z,10.25
2019-04-26T08:37:12.644Z,11.60
2019-04-26T08:39:45.579Z,11.20
2019-04-26T08:42:21.049Z,10.08
2019-04-26T08:45:08.877Z,11.00
2019-04-26T08:47:56.920Z,10.10
2019-04-26T08:50:45.950Z,10.03
2019-04-26T08:53:17.830Z,12.07
2019-04-26T08:55:49.147Z,10.38
2019-04-26T08:58:23.549Z,10.18
2019-04-26T09:01:07.978Z,11.08
2019-04-26T09:04:01.664Z,9.38
2019-04-26T09:06:41.238Z,9.50
2019-04-26T09:09:18.159Z,8.37
2019-04-26T09:11:59.441Z,9.30
2019-04-26T09:14:26.002Z,9.23
2019-04-26T09:16:55.629Z,8.63
2019-04-26T09:19:26.264Z,9.20
2019-04-26T09:22:13.264Z,9.70
2019-04-26T09:25:02.229Z,8.65
2019-04-26T09:27:51.168Z,7.75
2019-04-26T09:30:42.322Z,9.83
2019-04-26T09:33:17.477Z,9.08
2019-04-26T09:35:46.240Z,7.92
2019-04-26T09:38:15.121Z,9.65
2019-04-26T09:40:43.890Z,9.40
2019-04-26T09:43:18.860Z,10.32
2019-04-26T09:46:02.421Z,9.35
2019-04-26T09:48:38.760Z,8.33
2019-04-26T09:51:07.953Z,9.00
2019-04-26T09:53:39.589Z,8.45
2019-04-26T09:56:07.470Z,8.10
2019-04-26T09:58:36.179Z,8.35
2019-04-26T10:01:06.305Z,9.23
2019-04-26T10:03:35.751Z,7.83
2019-04-26T10:06:04.569Z,7.83
2019-04-26T10:08:33.653Z,8.08
2019-04-26T10:11:05.714Z,7.53
2019-04-26T10:13:46.841Z,7.40
2019-04-26T10:16:28.456Z,7.83
2019-04-26T10:19:03.854Z,6.85
2019-04-26T10:21:32.545Z,7.87
2019-04-26T10:24:01.281Z,8.65
2019-04-26T10:26:30.043Z,9.28
2019-04-26T10:29:01.383Z,7.60
2019-04-26T10:31:32.223Z,7.12
2019-04-26T10:34:01.043Z,7.57
2019-04-26T10:36:31.367Z,7.37
2019-04-26T10:39:00.715Z,6.15
2019-04-26T10:41:30.474Z,7.00
2019-04-26T10:44:01.269Z,7.87
2019-04-26T10:46:29.926Z,6.75
2019-04-26T10:49:08.983Z,7.45
2019-04-26T10:51:41.945Z,6.33
2019-04-26T10:54:18.689Z,6.62
2019-04-26T10:57:13.692Z,6.25
2019-04-26T10:59:59.785Z,6.33
2019-04-26T11:02:28.516Z,6.67
2019-04-26T11:04:57.456Z,6.97
2019-04-26T11:07:26.640Z,5.47
2019-04-26T11:09:55.828Z,7.28
2019-04-26T11:12:24.790Z,7.42
2019-04-26T11:14:56.920Z,5.73
2019-04-26T11:17:25.676Z,5.87
2019-04-26T11:19:54.434Z,6.37
2019-04-26T11:22:29.174Z,5.23
2019-04-26T11:24:55.021Z,5.15
2019-04-26T11:27:24.460Z,4.62
2019-04-26T11:29:55.395Z,6.65
2019-04-26T11:32:26.100Z,6.60
2019-04-26T11:34:58.663Z,5.40
2019-04-26T11:37:25.690Z,5.60
2019-04-26T11:39:54.850Z,6.15
2019-04-26T11:42:23.727Z,7.15
2019-04-26T11:44:52.225Z,5.40
2019-04-26T11:47:20.997Z,5.75
2019-04-26T11:49:50.309Z,5.37
2019-04-26T11:52:19.062Z,4.72
2019-04-26T11:54:51.316Z,6.17
2019-04-26T11:57:19.158Z,5.30
2019-04-26T11:59:47.920Z,5.28
2019-04-26T12:02:17.275Z,5.05
2019-04-26T12:05:04.096Z,4.72
2019-04-26T12:07:37.151Z,6.62
2019-04-26T12:10:09.939Z,4.97
2019-04-26T12:12:37.118Z,7.05
2019-04-26T12:15:08.606Z,5.70
2019-04-26T12:17:36.908Z,4.70
2019-04-26T12:20:06.321Z,4.03
2019-04-26T12:22:35.148Z,4.17
2019-04-26T12:25:07.231Z,4.33
2019-04-26T12:27:34.954Z,4.75
2019-04-26T12:30:06.024Z,3.98
2019-04-26T12:32:36.739Z,4.92
2019-04-26T12:35:05.703Z,5.28
2019-04-26T12:37:34.289Z,5.17
2019-04-26T12:40:07.199Z,5.15
2019-04-26T12:42:35.949Z,4.90
2019-04-26T12:45:21.742Z,4.90
2019-04-26T12:47:56.169Z,4.60
2019-04-26T12:50:25.400Z,5.42
2019-04-26T12:52:55.872Z,4.70
2019-04-26T12:55:25.339Z,4.60
2019-04-26T12:57:53.881Z,4.72
2019-04-26T13:00:27.099Z,5.58
2019-04-26T13:02:56.572Z,4.97
2019-04-26T13:05:27.989Z,4.12
2019-04-26T13:07:56.777Z,4.35
2019-04-26T13:10:47.894Z,4.65
2019-04-26T13:13:21.424Z,4.50
2019-04-26T13:15:56.172Z,4.25
2019-04-26T13:18:25.041Z,4.83
2019-04-26T13:20:53.895Z,5.87
2019-04-26T13:23:25.410Z,3.90
2019-04-26T13:25:55.382Z,5.12
2019-04-26T13:28:24.405Z,4.83
2019-04-26T13:30:54.987Z,4.47
2019-04-26T13:33:27.403Z,3.58
2019-04-26T13:36:04.410Z,4.42
2019-04-26T13:38:27.990Z,4.58
2019-04-26T13:40:59.582Z,5.00
2019-04-26T13:43:28.730Z,5.58
2019-04-26T13:46:25.995Z,7.08
2019-04-26T13:49:02.972Z,6.10
2019-04-26T13:51:32.644Z,5.15
2019-04-26T13:54:02.653Z,5.90
2019-04-26T13:59:03.188Z,5.67
2019-04-26T14:01:32.130Z,5.87
2019-04-26T14:04:02.408Z,6.08
2019-04-26T14:06:32.634Z,6.33
2019-04-26T14:09:03.032Z,7.33
2019-04-26T14:11:32.104Z,7.15
2019-04-26T14:14:02.050Z,6.17
2019-04-26T14:16:31.549Z,6.28
2019-04-26T14:19:02.734Z,5.87
2019-04-26T14:21:33.259Z,6.10
2019-04-26T14:24:19.529Z,5.50
2019-04-26T14:26:55.197Z,6.67
2019-04-26T14:29:24.315Z,5.95
2019-04-26T14:31:55.103Z,6.45
2019-04-26T14:34:25.735Z,7.72
2019-04-26T14:37:05.980Z,7.95
2019-04-26T14:39:38.328Z,7.58
2019-04-26T14:41:58.135Z,8.18
2019-04-26T14:44:31.367Z,6.28
2019-04-26T14:46:58.683Z,6.72
2019-04-26T14:49:38.601Z,8.33
2019-04-26T14:51:58.267Z,6.97
2019-04-26T14:54:27.164Z,6.72
2019-04-26T14:56:59.831Z,7.37
2019-04-26T15:00:02.022Z,6.53
2019-04-26T15:02:56.288Z,7.55
2019-04-26T15:05:38.245Z,6.72
2019-04-26T15:08:09.723Z,6.95
2019-04-26T15:10:45.775Z,7.40
2019-04-26T15:13:19.969Z,8.23
2019-04-26T15:15:42.216Z,7.20
2019-04-26T15:18:12.286Z,7.37
2019-04-26T15:20:41.302Z,7.12
2019-04-26T15:23:10.483Z,6.12
2019-04-26T15:25:41.431Z,5.40
2019-04-26T15:28:11.950Z,6.35
2019-04-26T15:30:46.415Z,6.95
2019-04-26T15:33:14.031Z,7.15
2019-04-26T15:35:45.921Z,7.28
2019-04-26T15:38:15.467Z,6.25
2019-04-26T15:41:05.402Z,6.97
2019-04-26T15:43:53.544Z,6.45
2019-04-26T15:46:31.786Z,5.87
2019-04-26T15:49:19.882Z,6.25
2019-04-26T15:51:48.789Z,6.05
2019-04-26T15:54:21.252Z,6.78
2019-04-26T15:56:49.270Z,5.87
2019-04-26T15:59:24.108Z,6.40
2019-04-26T16:01:52.115Z,7.60
2019-04-26T16:04:22.255Z,6.33
2019-04-26T16:06:52.617Z,6.85
2019-04-26T16:09:23.018Z,6.93
2019-04-26T16:11:54.853Z,5.67
2019-04-26T16:14:24.919Z,7.47
2019-04-26T16:16:54.215Z,7.33
2019-04-26T16:19:26.706Z,7.33
2019-04-26T16:21:55.334Z,6.47
2019-04-26T16:24:24.174Z,6.87
2019-04-26T16:26:56.244Z,6.40
2019-04-26T16:29:37.789Z,6.22
2019-04-26T16:32:24.710Z,6.92
2019-04-26T16:34:55.263Z,7.60
2019-04-26T16:37:25.821Z,6.25
2019-04-26T16:39:54.320Z,6.33
2019-04-26T16:42:23.573Z,7.10
2019-04-26T16:44:53.141Z,7.37
2019-04-26T16:47:23.459Z,6.37
2019-04-26T16:49:54.657Z,7.50
2019-04-26T16:52:24.035Z,6.17
2019-04-26T16:54:58.589Z,6.40
2019-04-26T16:57:24.291Z,7.22
2019-04-26T16:59:57.535Z,7.30
2019-04-26T17:02:26.388Z,6.80
2019-04-26T17:04:55.744Z,7.08
2019-04-26T17:07:27.365Z,5.65
2019-04-26T17:09:59.489Z,8.35
2019-04-26T17:12:26.694Z,9.58
2019-04-26T17:14:55.492Z,8.45
2019-04-26T17:17:24.468Z,7.03
2019-04-26T17:19:53.412Z,6.80
2019-04-26T17:23:00.608Z,7.80
2019-04-26T17:25:36.841Z,8.83
2019-04-26T17:28:05.890Z,8.75
2019-04-26T17:30:41.287Z,8.03
2019-04-26T17:33:06.802Z,8.90
2019-04-26T17:35:40.951Z,9.50
2019-04-26T17:38:11.469Z,8.15
2019-04-26T17:40:41.105Z,8.68
2019-04-26T17:43:11.408Z,8.73
2019-04-26T17:45:44.136Z,7.50
2019-04-26T17:48:14.149Z,9.25
2019-04-26T17:50:42.431Z,8.80
2019-04-26T17:53:13.455Z,8.13
2019-04-26T17:55:41.732Z,8.73
2019-04-26T17:58:17.301Z,8.28
2019-04-26T18:00:46.011Z,9.65
2019-04-26T18:03:15.002Z,8.90
2019-04-26T18:05:56.720Z,8.23
2019-04-26T18:08:33.178Z,9.90
2019-04-26T18:10:45.208Z,7.97
2019-04-26T18:13:16.077Z,9.88
2019-04-26T18:15:48.325Z,8.95
2019-04-26T18:18:54.407Z,8.73
2019-04-26T18:21:39.474Z,9.35
2019-04-26T18:24:08.180Z,9.95
2019-04-26T18:26:37.780Z,9.17
2019-04-26T18:29:06.715Z,8.95
2019-04-26T18:31:35.545Z,10.05
2019-04-26T18:34:05.022Z,8.70
2019-04-26T18:36:35.430Z,10.00
2019-04-26T18:39:08.008Z,8.38
2019-04-26T18:41:36.531Z,8.58
2019-04-26T18:44:05.907Z,9.63
2019-04-26T18:47:00.065Z,8.15
2019-04-26T18:49:29.697Z,9.83
2019-04-26T18:51:58.310Z,8.75
2019-04-26T18:54:35.338Z,9.40
2019-04-26T18:57:03.671Z,9.68
2019-04-26T18:59:34.033Z,8.83
2019-04-26T19:02:03.941Z,7.97
2019-04-26T19:04:33.566Z,9.33
2019-04-26T19:07:03.029Z,9.40
2019-04-26T19:09:45.228Z,10.05
2019-04-26T19:12:05.183Z,8.55
2019-04-26T19:15:02.923Z,10.20
2019-04-26T19:17:52.040Z,8.48
2019-04-26T19:20:49.399Z,10.05
2019-04-26T19:23:18.157Z,8.55
2019-04-26T19:25:46.821Z,10.55
2019-04-26T19:28:15.177Z,9.65
2019-04-26T19:30:49.520Z,8.53
2019-04-26T19:33:16.698Z,9.28
2019-04-26T19:38:17.572Z,8.80
2019-04-26T19:40:48.283Z,8.80
2019-04-26T19:43:28.072Z,8.60
2019-04-26T19:46:25.345Z,8.50
2019-04-26T19:49:14.414Z,8.43
2019-04-26T19:52:03.852Z,9.48
2019-04-26T19:54:38.419Z,8.80
2019-04-26T19:57:11.713Z,8.38
2019-04-26T19:59:40.157Z,9.50
2019-04-26T20:02:08.972Z,9.73
2019-04-26T20:04:37.941Z,9.18
2019-04-26T20:07:06.853Z,8.00
2019-04-26T20:09:35.923Z,8.35
2019-04-26T20:12:04.793Z,9.83
2019-04-26T20:14:44.581Z,7.62
2019-04-26T20:17:05.516Z,11.57
2019-04-26T20:19:37.463Z,7.37
2019-04-26T20:24:33.190Z,8.93
2019-04-26T20:27:03.553Z,10.48
2019-04-26T20:29:32.504Z,9.43
2019-04-26T20:32:16.547Z,9.20
2019-04-26T20:34:53.726Z,10.38
2019-04-26T20:37:25.603Z,8.63
2019-04-26T20:40:15.460Z,9.13
2019-04-26T20:42:27.629Z,8.85
2019-04-26T20:44:56.148Z,9.05
2019-04-26T20:47:24.587Z,9.38
2019-04-26T20:50:00.652Z,8.80
2019-04-26T20:54:54.212Z,10.72
2019-04-26T20:57:26.543Z,9.00
2019-04-26T21:00:01.484Z,11.55
2019-04-26T21:04:53.758Z,9.65
2019-04-26T21:07:22.724Z,9.43
2019-04-26T21:09:51.344Z,9.48
2019-04-26T21:12:20.024Z,10.45
2019-04-26T21:14:48.787Z,9.65
2019-04-26T21:17:19.341Z,9.50
2019-04-26T21:22:18.316Z,9.63
2019-04-26T21:24:54.539Z,10.25
2019-04-26T21:27:37.930Z,9.48
2019-04-26T21:30:16.578Z,8.63
2019-04-26T21:33:10.963Z,10.18
2019-04-26T21:35:48.289Z,9.18
2019-04-26T21:38:36.527Z,10.55
2019-04-26T21:41:14.004Z,9.45
2019-04-26T21:43:45.027Z,12.25
2019-04-26T21:46:18.634Z,9.78
2019-04-26T21:48:46.095Z,12.00
2019-04-26T21:51:17.988Z,10.65
2019-04-26T21:53:46.560Z,9.90
2019-04-26T21:56:15.236Z,9.68
2019-04-26T21:58:46.021Z,11.03
2019-04-26T22:01:20.347Z,8.78
2019-04-26T22:03:54.322Z,10.25
2019-04-26T22:06:20.003Z,10.18
2019-04-26T22:08:59.419Z,10.10
2019-04-26T22:11:29.508Z,9.95
2019-04-26T22:14:05.623Z,11.10
2019-04-26T22:16:39.535Z,11.12
2019-04-26T22:19:37.525Z,10.63
2019-04-26T22:22:28.734Z,11.15
2019-04-26T22:24:58.402Z,9.73
2019-04-26T22:27:26.733Z,10.35
2019-04-26T22:29:55.453Z,11.65
2019-04-26T22:32:24.114Z,12.45
2019-04-26T22:34:53.860Z,10.55
2019-04-26T22:37:29.657Z,12.07
2019-04-26T22:42:24.994Z,11.95
2019-04-26T22:45:03.234Z,11.08
2019-04-26T22:47:53.479Z,9.98
2019-04-26T22:50:24.928Z,12.98
2019-04-26T22:55:27.189Z,10.82
2019-04-26T22:57:53.724Z,11.38
2019-04-26T23:00:28.356Z,12.78
2019-04-26T23:02:58.080Z,12.58
2019-04-26T23:05:25.334Z,12.15
2019-04-26T23:07:54.698Z,13.18
2019-04-26T23:13:07.927Z,11.55
2019-04-26T23:15:55.599Z,14.77
2019-04-26T23:18:43.817Z,13.50
2019-04-26T23:21:33.907Z,14.60
2019-04-26T23:24:03.802Z,13.77
2019-04-26T23:26:33.518Z,14.15
2019-04-26T23:29:03.773Z,15.23
2019-04-26T23:31:33.449Z,14.60
2019-04-26T23:34:03.016Z,12.90
2019-04-26T23:36:31.830Z,13.38
2019-04-26T23:39:03.407Z,14.43
2019-04-26T23:41:33.613Z,13.78
2019-04-26T23:44:06.769Z,14.23
2019-04-26T23:46:37.362Z,14.45
2019-04-26T23:49:06.034Z,14.25
2019-04-26T23:51:38.215Z,15.88
2019-04-26T23:54:04.905Z,15.15
2019-04-26T23:56:33.922Z,13.68
2019-04-26T23:59:03.569Z,12.90
